Time;durP1;ratioP1;P1;durP2;ratioP2;P2;SDS_P1;SDS_P2;PMS_P1;PMS_P2;Temp;Humidity;BMP_temperature;BMP_pressure;BME280_temperature;BME280_humidity;BME280_pressure;Samples;Min_cycle;Max_cycle;Signal;HPM_P1;HPM_P2
2021/06/11 00:01:37;;;;;;;8.65;4.85;;;21.50;88.80;;;;;;5090646;28;20021;-86
2021/06/11 00:04:03;;;;;;;8.60;5.38;;;21.40;89.20;;;;;;5092069;28;20020;-86
2021/06/11 00:06:28;;;;;;;7.30;4.80;;;21.40;89.60;;;;;;5090695;28;20043;-86
2021/06/11 00:08:54;;;;;;;9.43;5.70;;;21.40;90.00;;;;;;5090435;28;20500;-86
2021/06/11 00:11:19;;;;;;;8.70;5.75;;;21.40;90.20;;;;;;5095983;28;20031;-86
2021/06/11 00:13:45;;;;;;;8.55;5.85;;;21.40;90.40;;;;;;5094695;28;20031;-86
2021/06/11 00:16:11;;;;;;;8.77;5.93;;;21.40;90.70;;;;;;5094576;28;20024;-86
2021/06/11 00:18:36;;;;;;;10.18;5.55;;;21.30;90.80;;;;;;5094634;28;20031;-86
2021/06/11 00:21:02;;;;;;;7.75;5.60;;;21.30;91.40;;;;;;5094120;28;20024;-86
2021/06/11 00:23:28;;;;;;;8.30;5.80;;;21.30;91.20;;;;;;5094808;28;20354;-85
2021/06/11 00:25:54;;;;;;;7.53;5.20;;;21.20;91.40;;;;;;5094416;28;20030;-84
2021/06/11 00:28:20;;;;;;;8.45;5.55;;;21.20;91.60;;;;;;5095709;28;20034;-84
2021/06/11 00:30:45;;;;;;;9.52;5.53;;;21.20;91.90;;;;;;5093845;28;20111;-84
2021/06/11 00:33:11;;;;;;;9.32;5.25;;;21.10;91.70;;;;;;5094313;28;20035;-85
2021/06/11 00:35:37;;;;;;;9.95;5.40;;;21.10;92.10;;;;;;5094325;28;20571;-85
2021/06/11 00:38:04;;;;;;;8.73;5.38;;;21.10;92.50;;;;;;5093919;28;20381;-85
2021/06/11 00:40:30;;;;;;;9.65;6.10;;;21.10;92.40;;;;;;5093646;28;20028;-85
2021/06/11 00:42:56;;;;;;;8.27;5.05;;;21.10;92.30;;;;;;5094115;28;20031;-84
2021/06/11 00:45:22;;;;;;;9.40;5.80;;;21.00;92.50;;;;;;5095500;28;20050;-85
2021/06/11 00:47:48;;;;;;;8.88;4.93;;;20.90;92.80;;;;;;5093978;28;20503;-85
2021/06/11 00:50:18;;;;;;;9.10;5.63;;;20.80;93.10;;;;;;5093264;28;20069;-85
2021/06/11 00:52:43;;;;;;;7.75;5.47;;;20.80;93.20;;;;;;5095164;28;20032;-85
2021/06/11 00:55:09;;;;;;;8.25;5.60;;;20.90;93.00;;;;;;5093903;28;20416;-85
2021/06/11 00:57:35;;;;;;;10.07;5.57;;;20.80;93.20;;;;;;5093866;28;20023;-85
2021/06/11 01:00:02;;;;;;;10.02;5.53;;;20.80;93.20;;;;;;5094464;28;20024;-85
2021/06/11 01:02:27;;;;;;;8.93;5.55;;;20.70;93.40;;;;;;5094896;28;20035;-85
2021/06/11 01:04:53;;;;;;;7.85;5.50;;;20.60;93.70;;;;;;5094917;28;20485;-84
2021/06/11 01:07:22;;;;;;;8.98;5.03;;;20.50;94.10;;;;;;5093804;28;20476;-85
2021/06/11 01:09:49;;;;;;;11.15;5.10;;;20.50;94.00;;;;;;5094377;28;20481;-85
2021/06/11 01:12:15;;;;;;;9.10;5.25;;;20.40;94.20;;;;;;5094750;28;20108;-83
2021/06/11 01:14:42;;;;;;;7.82;5.40;;;20.40;94.30;;;;;;5093481;28;20055;-85
2021/06/11 01:17:09;;;;;;;7.10;4.95;;;20.30;94.40;;;;;;5093535;28;20027;-85
2021/06/11 01:19:47;;;;;;;8.70;5.10;;;20.30;94.50;;;;;;5092826;28;20407;-85
2021/06/11 01:22:18;;;;;;;9.20;5.20;;;20.20;94.60;;;;;;5092106;28;20446;-85
2021/06/11 01:25:07;;;;;;;8.68;5.40;;;20.10;94.80;;;;;;5093443;28;20020;-85
2021/06/11 01:27:34;;;;;;;11.00;5.30;;;20.10;94.80;;;;;;5093346;28;20504;-84
2021/06/11 01:30:07;;;;;;;9.35;5.50;;;20.10;95.00;;;;;;5093916;28;20423;-85
2021/06/11 01:32:34;;;;;;;8.07;5.05;;;20.10;95.00;;;;;;5093098;28;20032;-85
2021/06/11 01:35:05;;;;;;;9.52;5.20;;;20.10;95.10;;;;;;5094496;28;20484;-85
2021/06/11 01:37:33;;;;;;;7.63;5.05;;;20.00;95.00;;;;;;5094260;28;20027;-85
2021/06/11 01:40:04;;;;;;;8.07;5.07;;;19.90;95.10;;;;;;5092550;28;20036;-84
2021/06/11 01:42:35;;;;;;;8.52;4.47;;;19.80;95.40;;;;;;5094084;28;20028;-84
2021/06/11 01:45:08;;;;;;;7.90;4.57;;;19.70;95.50;;;;;;5093194;28;20024;-85
2021/06/11 01:47:42;;;;;;;9.55;4.57;;;19.70;95.70;;;;;;5094243;28;20028;-85
2021/06/11 01:50:10;;;;;;;15.30;4.95;;;19.70;95.80;;;;;;5092337;28;20024;-85
2021/06/11 01:52:37;;;;;;;6.73;4.53;;;19.60;95.90;;;;;;5094027;28;20024;-84
2021/06/11 01:55:06;;;;;;;7.70;4.82;;;19.60;96.00;;;;;;5093901;28;20028;-84
2021/06/11 01:57:32;;;;;;;8.20;4.70;;;19.50;96.10;;;;;;5093966;28;20021;-85
2021/06/11 02:00:00;;;;;;;7.95;4.47;;;19.50;96.10;;;;;;5093380;28;20468;-85
2021/06/11 02:02:26;;;;;;;7.97;4.20;;;19.40;96.20;;;;;;5093873;28;20110;-85
2021/06/11 02:04:52;;;;;;;8.68;4.78;;;19.40;96.30;;;;;;5092630;28;20107;-85
2021/06/11 02:07:19;;;;;;;7.88;4.82;;;19.50;96.30;;;;;;5093855;28;20540;-85
2021/06/11 02:09:46;;;;;;;7.15;5.05;;;19.40;96.30;;;;;;5091924;28;20110;-85
2021/06/11 02:12:12;;;;;;;10.68;4.72;;;19.40;96.50;;;;;;5093704;28;20024;-84
2021/06/11 02:14:38;;;;;;;8.50;4.68;;;19.40;96.50;;;;;;5092236;28;20034;-84
2021/06/11 02:17:06;;;;;;;9.57;4.80;;;19.40;96.50;;;;;;5092463;28;20024;-85
2021/06/11 02:19:35;;;;;;;8.13;4.35;;;19.30;96.60;;;;;;5093013;28;20020;-85
2021/06/11 02:22:04;;;;;;;9.05;5.38;;;19.30;96.60;;;;;;5093432;28;20052;-85
2021/06/11 02:24:32;;;;;;;7.72;4.55;;;19.20;96.70;;;;;;5092301;28;20099;-85
2021/06/11 02:27:00;;;;;;;7.57;4.93;;;19.20;96.80;;;;;;5092101;28;20016;-84
2021/06/11 02:29:26;;;;;;;6.95;4.63;;;19.20;96.70;;;;;;5090777;28;20111;-85
2021/06/11 02:31:51;;;;;;;7.20;4.90;;;19.20;96.80;;;;;;5090218;28;20548;-85
2021/06/11 02:34:17;;;;;;;11.27;5.50;;;19.10;96.90;;;;;;5093284;28;20385;-84
2021/06/11 02:36:43;;;;;;;7.18;4.70;;;19.00;97.10;;;;;;5092996;28;20503;-84
2021/06/11 02:39:11;;;;;;;8.70;5.30;;;19.00;97.10;;;;;;5091294;28;20028;-84
2021/06/11 02:41:49;;;;;;;6.97;4.95;;;19.10;97.00;;;;;;5092081;28;20034;-85
2021/06/11 02:44:15;;;;;;;7.60;5.50;;;19.00;97.30;;;;;;5091937;28;20077;-85
2021/06/11 02:46:47;;;;;;;8.20;5.55;;;19.00;97.20;;;;;;5091723;28;20345;-84
2021/06/11 02:49:16;;;;;;;8.43;6.10;;;18.90;97.40;;;;;;5092185;28;20027;-85
2021/06/11 02:51:49;;;;;;;10.25;6.10;;;18.90;97.50;;;;;;5091677;28;20031;-85
2021/06/11 02:54:24;;;;;;;8.18;5.63;;;18.90;97.90;;;;;;5091700;28;20446;-85
2021/06/11 02:57:04;;;;;;;9.57;6.38;;;18.90;97.60;;;;;;5091485;28;20161;-84
2021/06/11 02:59:38;;;;;;;13.32;6.18;;;18.90;97.70;;;;;;5090886;28;20024;-85
2021/06/11 03:02:08;;;;;;;9.23;6.10;;;19.00;97.60;;;;;;5092781;28;20020;-85
2021/06/11 03:04:35;;;;;;;11.43;6.55;;;19.00;97.50;;;;;;5092772;28;20020;-85
2021/06/11 03:07:03;;;;;;;8.98;6.28;;;19.00;97.40;;;;;;5092706;28;20020;-84
2021/06/11 03:09:31;;;;;;;10.18;5.72;;;19.00;97.40;;;;;;5092104;28;20100;-85
2021/06/11 03:11:59;;;;;;;10.93;5.95;;;19.00;97.50;;;;;;5091256;28;20050;-85
2021/06/11 03:14:27;;;;;;;7.40;5.60;;;18.90;97.60;;;;;;5091429;28;20557;-85
2021/06/11 03:17:00;;;;;;;8.50;5.93;;;18.90;97.90;;;;;;5092491;28;20032;-84
2021/06/11 03:19:32;;;;;;;9.02;5.80;;;18.90;97.50;;;;;;5091873;28;20099;-85
2021/06/11 03:22:06;;;;;;;8.50;5.75;;;18.90;97.50;;;;;;5092494;28;20032;-85
2021/06/11 03:24:42;;;;;;;8.00;6.10;;;18.90;97.60;;;;;;5091129;28;20111;-84
2021/06/11 03:27:15;;;;;;;10.93;6.63;;;18.90;97.70;;;;;;5091078;28;20024;-85
2021/06/11 03:30:05;;;;;;;10.60;6.50;;;18.80;98.00;;;;;;5090404;28;20096;-85
2021/06/11 03:32:35;;;;;;;8.00;5.93;;;18.70;98.30;;;;;;5091037;28;20032;-85
2021/06/11 03:35:05;;;;;;;11.20;6.30;;;18.70;98.30;;;;;;5092207;28;20490;-85
2021/06/11 03:37:32;;;;;;;8.52;5.90;;;18.70;98.20;;;;;;5090884;28;20392;-85
2021/06/11 03:40:01;;;;;;;10.00;6.38;;;18.70;98.20;;;;;;5090571;28;20459;-85
2021/06/11 03:42:28;;;;;;;9.63;6.35;;;18.70;98.40;;;;;;5091017;28;20031;-85
2021/06/11 03:44:56;;;;;;;10.48;5.90;;;18.50;98.30;;;;;;5090502;28;20119;-85
2021/06/11 03:47:25;;;;;;;8.30;6.15;;;18.50;98.40;;;;;;5092110;28;20533;-85
2021/06/11 03:49:56;;;;;;;9.38;6.15;;;18.50;98.50;;;;;;5091650;28;20039;-85
2021/06/11 03:52:26;;;;;;;10.23;6.00;;;18.40;98.50;;;;;;5090927;28;20024;-85
2021/06/11 03:54:55;;;;;;;9.38;6.18;;;18.60;98.50;;;;;;5092138;28;20030;-85
2021/06/11 03:57:27;;;;;;;9.98;7.03;;;18.60;98.50;;;;;;5092011;28;20484;-85
2021/06/11 03:59:53;;;;;;;10.55;6.85;;;18.60;98.30;;;;;;5090518;28;20388;-85
2021/06/11 04:02:19;;;;;;;9.93;6.55;;;18.60;98.40;;;;;;5091026;28;20508;-85
2021/06/11 04:04:45;;;;;;;9.75;6.20;;;18.60;98.60;;;;;;5090770;28;20030;-85
2021/06/11 04:07:20;;;;;;;10.43;6.15;;;18.60;98.30;;;;;;5092035;28;20027;-84
2021/06/11 04:09:49;;;;;;;9.57;5.82;;;18.60;98.30;;;;;;5091419;28;20032;-85
2021/06/11 04:12:23;;;;;;;;;;;18.50;98.40;;;;;;5092437;28;20069;-84
2021/06/11 04:14:52;;;;;;;10.20;6.55;;;18.60;98.40;;;;;;5090660;28;19911;-84
2021/06/11 04:17:26;;;;;;;10.50;6.50;;;18.60;98.50;;;;;;5090704;28;20106;-84
2021/06/11 04:19:55;;;;;;;11.65;6.47;;;18.60;98.50;;;;;;5091414;28;20095;-84
2021/06/11 04:22:31;;;;;;;10.30;6.43;;;18.60;98.60;;;;;;5090654;28;20021;-84
2021/06/11 04:24:59;;;;;;;10.45;6.60;;;18.60;98.80;;;;;;5090528;28;20078;-83
2021/06/11 04:27:26;;;;;;;8.18;6.20;;;18.70;98.60;;;;;;5090505;28;20119;-83
2021/06/11 04:29:53;;;;;;;10.93;6.70;;;18.70;98.50;;;;;;5089950;28;20053;-84
2021/06/11 04:32:19;;;;;;;11.65;6.25;;;18.80;98.40;;;;;;5091822;28;20036;-84
2021/06/11 04:34:46;;;;;;;10.98;6.65;;;18.80;98.50;;;;;;5092046;28;20376;-84
2021/06/11 04:37:17;;;;;;;10.43;6.47;;;18.80;98.50;;;;;;5092219;28;20027;-84
2021/06/11 04:39:44;;;;;;;11.30;6.95;;;18.70;98.50;;;;;;5089624;28;20036;-84
2021/06/11 04:42:10;;;;;;;12.65;7.07;;;18.80;98.70;;;;;;5090427;28;20028;-84
2021/06/11 04:44:36;;;;;;;12.32;7.25;;;18.80;98.70;;;;;;5091855;28;20530;-84
2021/06/11 04:47:02;;;;;;;9.30;6.85;;;18.80;98.60;;;;;;5091846;28;20024;-85
2021/06/11 04:49:27;;;;;;;12.98;7.68;;;18.90;98.50;;;;;;5089738;28;20446;-84
2021/06/11 04:51:53;;;;;;;15.55;8.80;;;18.80;98.70;;;;;;5091465;28;20110;-84
2021/06/11 04:54:19;;;;;;;13.70;8.05;;;18.80;99.10;;;;;;5091604;28;20103;-85
2021/06/11 04:56:44;;;;;;;12.35;7.68;;;18.80;98.80;;;;;;5094771;28;20469;-85
2021/06/11 04:59:10;;;;;;;16.23;8.15;;;18.90;98.70;;;;;;5093692;28;20476;-85
2021/06/11 05:01:36;;;;;;;14.20;7.75;;;18.90;98.70;;;;;;5095163;28;20020;-84
2021/06/11 05:04:01;;;;;;;16.10;7.95;;;18.90;98.70;;;;;;5094341;28;20028;-85
2021/06/11 05:06:27;;;;;;;16.65;8.50;;;18.90;98.70;;;;;;5095435;28;20028;-85
2021/06/11 05:08:53;;;;;;;13.38;7.95;;;19.00;98.80;;;;;;5093335;28;20032;-85
2021/06/11 05:11:19;;;;;;;13.85;8.43;;;19.10;98.80;;;;;;5094114;28;20035;-84
2021/06/11 05:13:44;;;;;;;14.88;9.23;;;19.10;98.80;;;;;;5094165;28;20036;-85
2021/06/11 05:16:10;;;;;;;15.77;8.80;;;19.10;98.80;;;;;;5093880;28;20032;-85
2021/06/11 05:18:35;;;;;;;19.30;8.98;;;19.20;99.10;;;;;;5093763;28;20051;-85
2021/06/11 05:21:02;;;;;;;18.48;9.25;;;19.20;98.80;;;;;;5093331;28;20031;-85
2021/06/11 05:23:29;;;;;;;19.83;9.30;;;19.20;98.90;;;;;;5094756;28;20028;-85
2021/06/11 05:25:56;;;;;;;15.05;8.85;;;19.30;98.90;;;;;;5093314;28;20408;-85
2021/06/11 05:28:22;;;;;;;17.90;9.63;;;19.30;98.80;;;;;;5093511;28;20039;-85
2021/06/11 05:30:53;;;;;;;22.85;10.00;;;19.30;98.90;;;;;;5093041;28;20028;-85
2021/06/11 05:33:20;;;;;;;23.40;9.40;;;19.40;98.80;;;;;;5093407;28;20036;-85
2021/06/11 05:35:46;;;;;;;22.58;9.18;;;19.40;98.80;;;;;;5076279;28;20035;-85
2021/06/11 05:38:12;;;;;;;20.25;9.20;;;19.50;98.80;;;;;;5093737;28;20036;-84
2021/06/11 05:40:39;;;;;;;23.55;9.90;;;19.60;98.80;;;;;;5092728;28;20031;-85
2021/06/11 05:43:05;;;;;;;22.40;10.02;;;19.60;98.60;;;;;;5093190;28;20110;-84
2021/06/11 05:45:31;;;;;;;36.75;13.38;;;19.70;98.50;;;;;;5093055;28;20059;-85
2021/06/11 05:47:57;;;;;;;26.33;10.70;;;19.80;98.80;;;;;;5092983;28;20039;-85
2021/06/11 05:50:26;;;;;;;24.15;10.75;;;19.80;98.50;;;;;;5093630;28;20507;-85
2021/06/11 05:52:51;;;;;;;19.67;10.90;;;19.90;98.40;;;;;;5093014;28;20081;-85
2021/06/11 05:55:17;;;;;;;15.20;8.77;;;19.90;98.40;;;;;;5092812;28;20028;-84
2021/06/11 05:57:43;;;;;;;18.85;10.35;;;19.90;98.50;;;;;;5092885;28;20135;-84
2021/06/11 06:00:09;;;;;;;22.13;10.80;;;20.00;98.40;;;;;;5092612;28;20027;-85
2021/06/11 06:02:35;;;;;;;15.90;10.40;;;20.10;98.40;;;;;;5093636;28;20058;-85
2021/06/11 06:05:01;;;;;;;20.58;10.90;;;20.10;98.30;;;;;;5094023;28;20052;-85
2021/06/11 06:07:27;;;;;;;23.58;12.85;;;20.10;98.50;;;;;;5093339;28;20051;-85
2021/06/11 06:09:54;;;;;;;19.60;13.80;;;20.20;98.00;;;;;;5093379;28;20031;-85
2021/06/11 06:12:19;;;;;;;30.05;17.48;;;20.20;97.70;;;;;;5093780;28;20480;-85
2021/06/11 06:14:45;;;;;;;35.63;20.40;;;20.30;97.70;;;;;;5093777;28;20024;-85
2021/06/11 06:17:10;;;;;;;31.15;18.17;;;20.30;97.50;;;;;;5092543;28;20098;-85
2021/06/11 06:19:37;;;;;;;27.58;16.42;;;20.30;97.60;;;;;;5092163;28;20473;-85
2021/06/11 06:22:03;;;;;;;27.92;18.38;;;20.30;97.50;;;;;;5093584;28;20016;-85
2021/06/11 06:24:29;;;;;;;26.65;17.20;;;20.30;97.70;;;;;;5093527;28;20030;-85
2021/06/11 06:26:54;;;;;;;23.50;16.38;;;20.40;97.70;;;;;;5092255;28;20128;-85
2021/06/11 06:29:20;;;;;;;20.90;14.50;;;20.40;98.10;;;;;;5091520;28;20118;-84
2021/06/11 06:31:47;;;;;;;24.80;14.73;;;20.40;97.30;;;;;;5092278;28;20119;-85
2021/06/11 06:34:13;;;;;;;19.27;13.15;;;20.40;97.30;;;;;;5092286;28;20032;-85
2021/06/11 06:36:39;;;;;;;23.70;14.48;;;20.50;97.20;;;;;;5091907;28;20392;-85
2021/06/11 06:39:07;;;;;;;18.58;12.43;;;20.50;97.40;;;;;;5091169;28;20077;-85
2021/06/11 06:41:34;;;;;;;18.50;13.40;;;20.50;97.40;;;;;;5093501;28;20044;-85
2021/06/11 06:43:59;;;;;;;20.85;12.82;;;20.60;97.30;;;;;;5092026;28;20496;-85
2021/06/11 06:46:28;;;;;;;20.52;13.43;;;20.60;97.10;;;;;;5092983;28;20035;-85
2021/06/11 06:48:54;;;;;;;;;;;20.60;97.00;;;;;;5091461;28;20028;-85
2021/06/11 06:51:23;;;;;;;17.67;13.35;;;20.60;96.90;;;;;;5091511;28;19960;-85
2021/06/11 06:53:49;;;;;;;23.58;13.75;;;20.60;96.80;;;;;;5091862;28;20393;-85
2021/06/11 06:56:15;;;;;;;28.13;12.68;;;20.60;96.80;;;;;;5091610;28;20020;-84
2021/06/11 06:58:41;;;;;;;17.55;13.18;;;20.60;96.70;;;;;;5091459;28;20031;-85
2021/06/11 07:01:07;;;;;;;19.05;12.57;;;20.70;96.70;;;;;;5090725;28;20434;-84
2021/06/11 07:03:33;;;;;;;17.52;11.70;;;20.70;97.00;;;;;;5091536;28;20020;-85
2021/06/11 07:05:59;;;;;;;22.08;13.70;;;20.80;96.20;;;;;;5091589;28;20488;-85
2021/06/11 07:08:31;;;;;;;23.17;12.98;;;20.80;96.50;;;;;;5091309;28;20020;-86
2021/06/11 07:11:00;;;;;;;15.18;12.05;;;20.80;96.30;;;;;;5092187;28;20078;-85
2021/06/11 07:13:27;;;;;;;16.92;12.30;;;20.80;96.00;;;;;;5092684;28;20016;-84
2021/06/11 07:15:53;;;;;;;20.63;12.75;;;20.80;95.80;;;;;;5091211;28;20059;-85
2021/06/11 07:18:19;;;;;;;20.67;11.80;;;20.90;96.00;;;;;;5090619;28;20065;-85
2021/06/11 07:20:45;;;;;;;15.90;10.75;;;20.90;95.90;;;;;;5090342;28;20020;-86
2021/06/11 07:23:11;;;;;;;17.17;11.52;;;20.90;95.70;;;;;;5091015;28;20024;-85
2021/06/11 07:25:37;;;;;;;11.18;7.90;;;21.00;95.00;;;;;;5092760;28;20027;-84
2021/06/11 07:28:03;;;;;;;15.80;10.48;;;21.00;94.20;;;;;;5093213;28;20488;-85
2021/06/11 07:30:29;;;;;;;18.98;13.02;;;21.00;94.50;;;;;;5091826;28;20031;-90
2021/06/11 07:32:54;;;;;;;18.40;12.32;;;21.00;95.20;;;;;;5069475;28;20429;-84
2021/06/11 07:35:20;;;;;;;13.15;7.35;;;21.00;95.10;;;;;;5072577;28;20067;-88
2021/06/11 07:37:46;;;;;;;14.85;10.40;;;21.10;94.50;;;;;;5071308;28;20028;-85
2021/06/11 07:40:13;;;;;;;15.07;10.93;;;21.10;94.40;;;;;;5070397;28;20047;-86
2021/06/11 07:42:38;;;;;;;17.98;11.40;;;21.20;94.80;;;;;;5072549;28;20111;-86
2021/06/11 07:45:06;;;;;;;25.70;15.00;;;21.20;94.70;;;;;;5067639;28;20108;-87
2021/06/11 07:47:32;;;;;;;23.80;15.18;;;21.20;94.40;;;;;;5043215;28;20174;-86
2021/06/11 07:49:57;;;;;;;29.13;16.50;;;21.30;94.60;;;;;;5048507;28;20116;-86
2021/06/11 07:52:23;;;;;;;23.38;14.63;;;21.30;94.50;;;;;;5050047;28;20025;-87
2021/06/11 07:54:49;;;;;;;18.48;12.38;;;21.30;94.80;;;;;;5049105;28;20039;-87
2021/06/11 07:57:14;;;;;;;18.48;13.38;;;21.30;94.70;;;;;;5046229;28;20021;-86
2021/06/11 07:59:42;;;;;;;15.07;10.02;;;21.40;95.10;;;;;;5049899;28;20352;-83
2021/06/11 08:02:07;;;;;;;88.78;12.57;;;21.40;93.50;;;;;;5050317;28;20021;-84
2021/06/11 08:04:33;;;;;;;13.45;8.00;;;21.40;93.50;;;;;;5051198;28;20149;-85
2021/06/11 08:06:59;;;;;;;15.15;10.70;;;21.30;94.50;;;;;;5051471;28;20465;-84
2021/06/11 08:09:25;;;;;;;19.30;13.73;;;21.30;94.70;;;;;;5050780;28;20025;-84
2021/06/11 08:11:51;;;;;;;17.42;13.02;;;21.40;94.60;;;;;;5056664;28;20422;-84
2021/06/11 08:14:16;;;;;;;22.40;14.55;;;21.40;94.90;;;;;;5055686;28;20040;-85
2021/06/11 08:16:42;;;;;;;20.00;13.82;;;21.40;95.20;;;;;;5057855;28;20045;-84
2021/06/11 08:19:08;;;;;;;20.27;14.35;;;21.50;94.80;;;;;;5054023;28;20055;-84
2021/06/11 08:21:33;;;;;;;23.30;13.50;;;21.50;94.80;;;;;;5053645;28;20466;-85
2021/06/11 08:23:59;;;;;;;17.80;12.27;;;21.50;95.10;;;;;;5056331;28;20525;-83
2021/06/11 08:26:25;;;;;;;19.25;11.25;;;21.50;94.80;;;;;;5055873;28;20369;-84
2021/06/11 08:28:51;;;;;;;19.48;11.25;;;21.50;94.20;;;;;;5054618;28;20025;-84
2021/06/11 08:31:16;;;;;;;15.93;9.95;;;21.50;94.40;;;;;;5055710;28;20363;-84
2021/06/11 08:33:43;;;;;;;15.77;10.60;;;21.50;94.60;;;;;;5058745;28;20025;-85
2021/06/11 08:36:09;;;;;;;20.60;11.75;;;21.50;94.30;;;;;;5059400;28;20052;-85
2021/06/11 08:38:35;;;;;;;21.50;12.45;;;21.60;94.70;;;;;;5058764;28;20512;-84
2021/06/11 08:41:00;;;;;;;21.63;13.40;;;21.60;94.40;;;;;;5056499;28;20013;-84
2021/06/11 08:43:26;;;;;;;15.15;10.10;;;21.60;94.30;;;;;;5054100;28;20025;-85
2021/06/11 08:45:53;;;;;;;18.48;10.30;;;21.60;94.50;;;;;;5056025;28;20033;-85
2021/06/11 08:48:21;;;;;;;16.80;11.45;;;21.60;94.40;;;;;;5056802;28;20033;-85
2021/06/11 08:50:47;;;;;;;15.40;10.83;;;21.70;94.10;;;;;;5058548;28;20156;-84
2021/06/11 08:53:12;;;;;;;20.23;11.52;;;21.60;94.50;;;;;;5059771;28;20815;-85
2021/06/11 08:55:38;;;;;;;18.52;12.43;;;21.70;94.30;;;;;;5057737;28;20029;-85
2021/06/11 08:58:05;;;;;;;19.98;12.73;;;21.80;94.20;;;;;;5059454;28;20027;-85
2021/06/11 09:00:32;;;;;;;18.20;13.63;;;21.80;94.40;;;;;;5057398;28;20043;-84
2021/06/11 09:03:13;;;;;;;16.13;11.52;;;21.80;94.20;;;;;;5057629;28;20168;-85
2021/06/11 09:05:41;;;;;;;20.35;12.77;;;21.70;94.50;;;;;;5057195;28;20039;-84
2021/06/11 09:08:12;;;;;;;17.23;11.23;;;21.70;94.00;;;;;;5056300;28;20119;-84
2021/06/11 09:10:38;;;;;;;14.98;10.52;;;21.80;93.80;;;;;;5054978;28;20486;-84
2021/06/11 09:13:04;;;;;;;17.77;11.30;;;21.80;94.00;;;;;;5056915;28;20119;-85
2021/06/11 09:15:29;;;;;;;18.80;12.25;;;21.90;93.80;;;;;;5056757;28;20106;-85
2021/06/11 09:17:56;;;;;;;14.38;10.70;;;21.90;94.00;;;;;;5057088;28;20017;-84
2021/06/11 09:20:34;;;;;;;17.45;10.48;;;22.00;94.00;;;;;;5057325;28;20022;-85
2021/06/11 09:23:00;;;;;;;17.40;10.32;;;22.00;93.80;;;;;;5057614;28;20394;-84
2021/06/11 09:25:26;;;;;;;16.33;9.77;;;22.00;92.90;;;;;;5056317;28;20029;-84
2021/06/11 09:28:01;;;;;;;15.95;9.95;;;21.90;92.90;;;;;;5055314;28;20032;-84
2021/06/11 09:30:48;;;;;;;14.98;10.38;;;21.90;93.00;;;;;;5055228;28;20331;-85
2021/06/11 09:33:18;;;;;;;12.38;9.15;;;21.90;93.20;;;;;;5045963;28;20151;-85
2021/06/11 09:35:47;;;;;;;15.30;8.43;;;21.90;93.40;;;;;;5053273;28;20036;-85
2021/06/11 09:38:16;;;;;;;14.38;9.48;;;22.00;93.40;;;;;;5053414;28;20048;-84
2021/06/11 09:41:05;;;;;;;17.45;10.88;;;22.00;93.10;;;;;;5053079;28;20032;-84
2021/06/11 09:43:32;;;;;;;15.07;10.73;;;22.00;93.10;;;;;;5049697;28;20052;-85
2021/06/11 09:46:04;;;;;;;15.18;9.55;;;22.00;93.00;;;;;;5043602;28;20032;-84
2021/06/11 09:48:49;;;;;;;15.10;10.27;;;22.00;93.00;;;;;;5053675;28;20040;-87
2021/06/11 09:51:20;;;;;;;15.75;10.27;;;22.00;92.90;;;;;;5050783;28;20082;-85
2021/06/11 09:53:46;;;;;;;13.98;9.20;;;22.10;93.00;;;;;;5052804;28;20056;-84
2021/06/11 09:56:24;;;;;;;13.70;9.52;;;22.10;92.90;;;;;;5054463;28;20036;-85
2021/06/11 09:58:50;;;;;;;11.30;8.80;;;22.20;93.00;;;;;;5053774;28;20051;-82
2021/06/11 10:01:16;;;;;;;17.65;10.13;;;22.20;93.10;;;;;;5052421;28;20375;-84
2021/06/11 10:03:46;;;;;;;15.00;10.20;;;22.20;92.80;;;;;;5054548;28;20043;-84
2021/06/11 10:06:15;;;;;;;12.32;8.70;;;22.30;92.80;;;;;;5054825;28;20330;-84
2021/06/11 10:08:45;;;;;;;13.13;8.98;;;22.30;92.70;;;;;;5053954;28;20112;-84
2021/06/11 10:11:13;;;;;;;17.27;9.52;;;22.30;92.40;;;;;;5050810;28;20032;-86
2021/06/11 10:13:42;;;;;;;14.80;8.70;;;22.40;92.20;;;;;;5053369;28;20401;-85
2021/06/11 10:16:10;;;;;;;14.85;8.93;;;22.50;92.50;;;;;;5051321;28;20333;-85
2021/06/11 10:18:36;;;;;;;11.15;7.32;;;22.50;92.30;;;;;;5052752;28;20174;-83
2021/06/11 10:21:02;;;;;;;10.38;7.45;;;22.50;92.40;;;;;;5052900;28;20059;-83
2021/06/11 10:23:30;;;;;;;14.05;8.30;;;22.50;92.30;;;;;;5053582;28;20363;-83
2021/06/11 10:25:56;;;;;;;13.90;8.07;;;22.50;92.50;;;;;;5053625;28;20484;-84
2021/06/11 10:28:36;;;;;;;10.38;6.60;;;22.50;92.10;;;;;;5054142;28;20618;-83
2021/06/11 10:31:04;;;;;;;11.93;5.80;;;22.50;92.10;;;;;;5053870;28;20175;-84
2021/06/11 10:33:45;;;;;;;8.90;6.45;;;22.50;92.00;;;;;;5053516;28;20029;-84
2021/06/11 10:36:33;;;;;;;10.45;6.95;;;22.60;91.70;;;;;;5054608;28;20104;-83
2021/06/11 10:39:15;;;;;;;10.70;6.70;;;22.50;91.40;;;;;;5054054;28;20033;-83
2021/06/11 10:41:58;;;;;;;8.35;6.00;;;22.60;91.40;;;;;;5054514;28;20018;-81
2021/06/11 10:44:40;;;;;;;9.38;6.38;;;22.60;91.60;;;;;;5052110;28;20039;-82
2021/06/11 10:47:25;;;;;;;12.98;6.13;;;22.70;91.50;;;;;;5052121;28;20490;-82
2021/06/11 10:50:01;;;;;;;12.35;6.57;;;22.70;91.10;;;;;;5051511;28;20043;-83
2021/06/11 10:52:38;;;;;;;10.95;5.80;;;22.80;91.00;;;;;;5054068;28;20025;-82
2021/06/11 10:55:18;;;;;;;8.75;5.50;;;22.90;91.20;;;;;;5053508;28;20032;-82
2021/06/11 10:57:59;;;;;;;10.25;6.00;;;23.00;90.80;;;;;;5054235;28;20024;-83
2021/06/11 11:00:31;;;;;;;10.60;4.70;;;23.00;90.70;;;;;;5044220;28;20013;-82
2021/06/11 11:02:58;;;;;;;7.38;3.95;;;23.00;90.40;;;;;;5034101;28;20013;-82
2021/06/11 11:05:41;;;;;;;7.15;4.50;;;23.00;90.10;;;;;;5053667;28;20033;-82
2021/06/11 11:08:10;;;;;;;10.13;5.68;;;23.10;90.50;;;;;;5051901;28;20032;-83
2021/06/11 11:10:43;;;;;;;10.43;4.70;;;23.10;90.30;;;;;;5051893;28;20013;-82
2021/06/11 11:13:11;;;;;;;11.95;5.32;;;23.10;89.90;;;;;;5053864;28;20029;-84
2021/06/11 11:15:42;;;;;;;9.93;5.70;;;23.10;89.70;;;;;;5049653;28;20119;-84
2021/06/11 11:18:37;;;;;;;14.27;5.38;;;23.30;89.50;;;;;;5050737;28;20274;-82
2021/06/11 11:21:23;;;;;;;9.50;5.28;;;23.40;89.10;;;;;;5046971;28;20056;-82
2021/06/11 11:23:54;;;;;;;10.20;6.10;;;23.40;89.20;;;;;;5065016;28;20382;-81
2021/06/11 11:26:47;;;;;;;8.25;5.15;;;23.40;89.50;;;;;;5050066;28;20389;-81
2021/06/11 11:29:16;;;;;;;12.68;5.38;;;23.30;90.00;;;;;;5048796;28;20044;-83
2021/06/11 11:31:45;;;;;;;11.85;5.60;;;23.30;89.80;;;;;;5050221;28;20100;-82
2021/06/11 11:34:11;;;;;;;;;;;23.30;90.10;;;;;;5050760;28;20100;-81
2021/06/11 11:36:37;;;;;;;11.60;6.25;;;23.30;88.90;;;;;;5049288;28;20026;-82
2021/06/11 11:39:10;;;;;;;10.65;5.28;;;23.30;88.80;;;;;;5049830;28;20068;-81
2021/06/11 11:41:37;;;;;;;9.50;5.05;;;23.30;89.20;;;;;;5048064;28;20108;-82
2021/06/11 11:44:03;;;;;;;9.00;4.85;;;23.30;88.90;;;;;;5049008;28;20033;-83
2021/06/11 11:46:28;;;;;;;6.47;4.20;;;23.30;88.70;;;;;;5059226;28;20064;-84
2021/06/11 11:48:54;;;;;;;12.00;4.65;;;23.30;88.50;;;;;;5060657;28;20024;-83
2021/06/11 11:51:20;;;;;;;8.30;4.50;;;23.40;88.70;;;;;;5068106;28;20029;-81
2021/06/11 11:53:46;;;;;;;6.68;4.50;;;23.60;86.10;;;;;;5066105;28;20048;-83
2021/06/11 11:56:11;;;;;;;7.93;4.32;;;23.60;86.00;;;;;;5050438;28;20036;-81
2021/06/11 11:58:37;;;;;;;7.65;3.83;;;23.60;86.90;;;;;;5065500;28;20025;-81
2021/06/11 12:01:03;;;;;;;5.43;3.67;;;23.60;87.60;;;;;;5049197;28;20024;-81
2021/06/11 12:03:29;;;;;;;8.25;4.15;;;23.60;87.40;;;;;;5050491;28;20412;-81
2021/06/11 12:05:55;;;;;;;8.77;4.28;;;23.60;88.00;;;;;;5052462;28;20040;-82
2021/06/11 12:08:21;;;;;;;9.13;4.57;;;23.60;87.40;;;;;;5054268;28;20053;-81
2021/06/11 12:10:46;;;;;;;7.05;4.05;;;23.60;86.70;;;;;;5053490;28;20033;-81
2021/06/11 12:13:13;;;;;;;7.85;3.70;;;23.60;86.20;;;;;;5069192;28;20067;-81
2021/06/11 12:15:38;;;;;;;7.55;3.53;;;23.70;84.10;;;;;;5067245;28;20017;-80
2021/06/11 12:18:04;;;;;;;6.90;3.80;;;23.60;84.50;;;;;;5052947;28;20067;-80
2021/06/11 12:20:32;;;;;;;5.90;2.80;;;23.60;84.80;;;;;;5051575;28;20024;-78
2021/06/11 12:23:02;;;;;;;7.47;3.28;;;23.70;85.40;;;;;;5052963;28;20017;-83
2021/06/11 12:25:28;;;;;;;8.13;3.22;;;23.80;85.40;;;;;;5051520;28;20025;-81
2021/06/11 12:27:54;;;;;;;5.93;3.00;;;23.90;84.70;;;;;;5053241;28;20021;-81
2021/06/11 12:30:20;;;;;;;9.55;4.30;;;24.00;84.10;;;;;;5051583;28;20037;-82
2021/06/11 12:32:46;;;;;;;5.63;3.10;;;24.00;83.20;;;;;;5052718;28;20025;-81
2021/06/11 12:35:12;;;;;;;8.27;3.70;;;24.10;83.40;;;;;;5052336;28;20081;-81
2021/06/11 12:37:39;;;;;;;4.93;3.20;;;24.20;81.10;;;;;;5054293;28;20119;-82
2021/06/11 12:40:06;;;;;;;7.53;3.28;;;24.30;82.00;;;;;;5043240;28;20167;-81
2021/06/11 12:42:35;;;;;;;6.38;2.85;;;24.40;80.30;;;;;;5052358;28;20063;-82
2021/06/11 12:45:01;;;;;;;9.05;3.13;;;24.60;79.30;;;;;;5050315;28;20580;-82